sensor_id;sensor_type;location;lat;lon;timestamp;temperature;humidity
46364;DHT22;32071;49.036;9.344;2023-04-01T00:00:19;9.20;99.90
46364;DHT22;32071;49.036;9.344;2023-04-01T00:02:46;9.20;99.90
46364;DHT22;32071;49.036;9.344;2023-04-01T00:05:11;9.10;99.90
46364;DHT22;32071;49.036;9.344;2023-04-01T00:07:38;9.10;99.90
46364;DHT22;32071;49.036;9.344;2023-04-01T00:10:06;9.10;99.90
46364;DHT22;32071;49.036;9.344;2023-04-01T00:12:32;9.10;99.90
46364;DHT22;32071;49.036;9.344;2023-04-01T00:14:58;9.10;99.90
46364;DHT22;32071;49.036;9.344;2023-04-01T00:17:23;9.10;99.90
46364;DHT22;32071;49.036;9.344;2023-04-01T00:19:49;9.00;99.90
46364;DHT22;32071;49.036;9.344;2023-04-01T00:22:14;9.00;99.90
46364;DHT22;32071;49.036;9.344;2023-04-01T00:24:40;8.90;99.90
46364;DHT22;32071;49.036;9.344;2023-04-01T00:27:06;8.90;99.90
46364;DHT22;32071;49.036;9.344;2023-04-01T00:29:33;8.90;99.90
46364;DHT22;32071;49.036;9.344;2023-04-01T00:31:59;8.90;99.90
46364;DHT22;32071;49.036;9.344;2023-04-01T00:34:24;8.90;99.90
46364;DHT22;32071;49.036;9.344;2023-04-01T00:36:51;8.90;99.90
46364;DHT22;32071;49.036;9.344;2023-04-01T00:39:18;8.90;99.90
46364;DHT22;32071;49.036;9.344;2023-04-01T00:41:44;8.90;99.90
46364;DHT22;32071;49.036;9.344;2023-04-01T00:44:20;8.90;99.90
46364;DHT22;32071;49.036;9.344;2023-04-01T00:46:46;8.80;99.90
46364;DHT22;32071;49.036;9.344;2023-04-01T00:49:13;8.80;99.90
46364;DHT22;32071;49.036;9.344;2023-04-01T00:51:41;8.80;99.90
46364;DHT22;32071;49.036;9.344;2023-04-01T00:54:07;8.80;99.90
46364;DHT22;32071;49.036;9.344;2023-04-01T00:56:41;8.80;99.90
46364;DHT22;32071;49.036;9.344;2023-04-01T00:59:16;8.80;99.90
46364;DHT22;32071;49.036;9.344;2023-04-01T01:01:43;8.80;99.90
46364;DHT22;32071;49.036;9.344;2023-04-01T01:04:32;8.70;99.90
46364;DHT22;32071;49.036;9.344;2023-04-01T01:07:04;8.70;99.90
46364;DHT22;32071;49.036;9.344;2023-04-01T01:09:45;8.70;99.90
46364;DHT22;32071;49.036;9.344;2023-04-01T01:12:40;8.60;99.90
46364;DHT22;32071;49.036;9.344;2023-04-01T01:15:25;8.60;99.90
46364;DHT22;32071;49.036;9.344;2023-04-01T01:18:06;8.60;99.90
46364;DHT22;32071;49.036;9.344;2023-04-01T01:23:39;8.70;99.90
46364;DHT22;32071;49.036;9.344;2023-04-01T01:31:50;8.80;99.90
46364;DHT22;32071;49.036;9.344;2023-04-01T01:36:55;8.90;99.90
46364;DHT22;32071;49.036;9.344;2023-04-01T01:39:23;8.90;99.90
46364;DHT22;32071;49.036;9.344;2023-04-01T01:41:53;9.00;99.90
46364;DHT22;32071;49.036;9.344;2023-04-01T01:44:21;9.00;99.90
46364;DHT22;32071;49.036;9.344;2023-04-01T01:46:48;9.00;99.90
46364;DHT22;32071;49.036;9.344;2023-04-01T01:49:15;9.00;99.90
46364;DHT22;32071;49.036;9.344;2023-04-01T01:51:41;9.00;99.90
46364;DHT22;32071;49.036;9.344;2023-04-01T01:54:15;9.00;99.90
46364;DHT22;32071;49.036;9.344;2023-04-01T01:56:45;9.00;99.90
46364;DHT22;32071;49.036;9.344;2023-04-01T01:59:13;9.10;99.90
46364;DHT22;32071;49.036;9.344;2023-04-01T02:01:42;9.10;99.90
46364;DHT22;32071;49.036;9.344;2023-04-01T02:04:10;9.10;99.90
46364;DHT22;32071;49.036;9.344;2023-04-01T02:06:39;9.10;99.90
46364;DHT22;32071;49.036;9.344;2023-04-01T02:09:08;9.10;99.90
46364;DHT22;32071;49.036;9.344;2023-04-01T02:14:19;9.10;99.90
46364;DHT22;32071;49.036;9.344;2023-04-01T02:16:54;9.10;99.90
46364;DHT22;32071;49.036;9.344;2023-04-01T02:19:25;9.10;99.90
46364;DHT22;32071;49.036;9.344;2023-04-01T02:21:55;9.10;99.90
46364;DHT22;32071;49.036;9.344;2023-04-01T02:24:23;9.10;99.90
46364;DHT22;32071;49.036;9.344;2023-04-01T02:26:50;9.20;99.90
46364;DHT22;32071;49.036;9.344;2023-04-01T02:29:21;9.20;99.90
46364;DHT22;32071;49.036;9.344;2023-04-01T02:31:47;9.20;99.90
46364;DHT22;32071;49.036;9.344;2023-04-01T02:34:14;9.20;99.90
46364;DHT22;32071;49.036;9.344;2023-04-01T02:36:40;9.20;99.90
46364;DHT22;32071;49.036;9.344;2023-04-01T02:39:07;9.20;99.90
46364;DHT22;32071;49.036;9.344;2023-04-01T02:41:42;9.20;99.90
46364;DHT22;32071;49.036;9.344;2023-04-01T02:44:09;9.20;99.90
46364;DHT22;32071;49.036;9.344;2023-04-01T02:46:35;9.20;99.90
46364;DHT22;32071;49.036;9.344;2023-04-01T02:49:01;9.20;99.90
46364;DHT22;32071;49.036;9.344;2023-04-01T02:51:27;9.20;99.90
46364;DHT22;32071;49.036;9.344;2023-04-01T02:53:52;9.10;99.90
46364;DHT22;32071;49.036;9.344;2023-04-01T02:56:18;9.10;99.90
46364;DHT22;32071;49.036;9.344;2023-04-01T02:58:45;9.00;99.90
46364;DHT22;32071;49.036;9.344;2023-04-01T03:01:10;9.00;99.90
46364;DHT22;32071;49.036;9.344;2023-04-01T03:03:36;9.00;99.90
46364;DHT22;32071;49.036;9.344;2023-04-01T03:06:10;9.00;99.90
46364;DHT22;32071;49.036;9.344;2023-04-01T03:08:36;9.00;99.90
46364;DHT22;32071;49.036;9.344;2023-04-01T03:11:01;9.00;99.90
46364;DHT22;32071;49.036;9.344;2023-04-01T03:13:27;8.90;99.90
46364;DHT22;32071;49.036;9.344;2023-04-01T03:15:53;9.00;99.90
46364;DHT22;32071;49.036;9.344;2023-04-01T03:18:18;9.00;99.90
46364;DHT22;32071;49.036;9.344;2023-04-01T03:20:44;8.90;99.90
46364;DHT22;32071;49.036;9.344;2023-04-01T03:23:10;9.00;99.90
46364;DHT22;32071;49.036;9.344;2023-04-01T03:25:35;9.00;99.90
46364;DHT22;32071;49.036;9.344;2023-04-01T03:28:01;9.00;99.90
46364;DHT22;32071;49.036;9.344;2023-04-01T03:30:27;9.00;99.90
46364;DHT22;32071;49.036;9.344;2023-04-01T03:32:55;9.00;99.90
46364;DHT22;32071;49.036;9.344;2023-04-01T03:35:21;9.00;99.90
46364;DHT22;32071;49.036;9.344;2023-04-01T03:37:46;9.00;99.90
46364;DHT22;32071;49.036;9.344;2023-04-01T03:40:12;8.90;99.90
46364;DHT22;32071;49.036;9.344;2023-04-01T03:42:37;8.90;99.90
46364;DHT22;32071;49.036;9.344;2023-04-01T03:45:04;8.90;99.90
46364;DHT22;32071;49.036;9.344;2023-04-01T03:47:30;8.80;99.90
46364;DHT22;32071;49.036;9.344;2023-04-01T03:49:56;8.80;99.90
46364;DHT22;32071;49.036;9.344;2023-04-01T03:52:22;8.80;99.90
46364;DHT22;32071;49.036;9.344;2023-04-01T03:54:47;8.80;99.90
46364;DHT22;32071;49.036;9.344;2023-04-01T03:57:13;8.80;99.90
46364;DHT22;32071;49.036;9.344;2023-04-01T03:59:38;8.80;99.90
46364;DHT22;32071;49.036;9.344;2023-04-01T04:02:04;8.80;99.90
46364;DHT22;32071;49.036;9.344;2023-04-01T04:04:30;8.80;99.90
46364;DHT22;32071;49.036;9.344;2023-04-01T04:06:56;8.90;99.90
46364;DHT22;32071;49.036;9.344;2023-04-01T04:09:22;8.90;99.90
46364;DHT22;32071;49.036;9.344;2023-04-01T04:11:49;8.80;99.90
46364;DHT22;32071;49.036;9.344;2023-04-01T04:14:14;8.80;99.90
46364;DHT22;32071;49.036;9.344;2023-04-01T04:16:40;8.90;99.90
46364;DHT22;32071;49.036;9.344;2023-04-01T04:19:06;8.90;99.90
46364;DHT22;32071;49.036;9.344;2023-04-01T04:21:31;8.80;99.90
46364;DHT22;32071;49.036;9.344;2023-04-01T04:23:59;8.80;99.90
46364;DHT22;32071;49.036;9.344;2023-04-01T04:26:24;8.80;99.90
46364;DHT22;32071;49.036;9.344;2023-04-01T04:28:51;8.80;99.90
46364;DHT22;32071;49.036;9.344;2023-04-01T04:31:21;8.80;99.90
46364;DHT22;32071;49.036;9.344;2023-04-01T04:33:48;8.70;99.90
46364;DHT22;32071;49.036;9.344;2023-04-01T04:36:13;8.70;99.90
46364;DHT22;32071;49.036;9.344;2023-04-01T04:38:39;8.70;99.90
46364;DHT22;32071;49.036;9.344;2023-04-01T04:41:10;8.70;99.90
46364;DHT22;32071;49.036;9.344;2023-04-01T04:43:35;8.70;99.90
46364;DHT22;32071;49.036;9.344;2023-04-01T04:46:05;8.70;99.90
46364;DHT22;32071;49.036;9.344;2023-04-01T04:48:31;8.70;99.90
46364;DHT22;32071;49.036;9.344;2023-04-01T04:50:57;8.60;99.90
46364;DHT22;32071;49.036;9.344;2023-04-01T04:53:22;8.60;99.90
46364;DHT22;32071;49.036;9.344;2023-04-01T04:55:49;8.60;99.90
46364;DHT22;32071;49.036;9.344;2023-04-01T04:58:15;8.60;99.90
46364;DHT22;32071;49.036;9.344;2023-04-01T05:00:42;8.60;99.90
46364;DHT22;32071;49.036;9.344;2023-04-01T05:03:09;8.70;99.90
46364;DHT22;32071;49.036;9.344;2023-04-01T05:05:34;8.70;99.90
46364;DHT22;32071;49.036;9.344;2023-04-01T05:08:00;8.70;99.90
46364;DHT22;32071;49.036;9.344;2023-04-01T05:10:25;8.70;99.90
46364;DHT22;32071;49.036;9.344;2023-04-01T05:12:51;8.70;99.90
46364;DHT22;32071;49.036;9.344;2023-04-01T05:15:17;8.70;99.90
46364;DHT22;32071;49.036;9.344;2023-04-01T05:17:42;8.80;99.90
46364;DHT22;32071;49.036;9.344;2023-04-01T05:20:08;8.80;99.90
46364;DHT22;32071;49.036;9.344;2023-04-01T05:22:34;8.80;99.90
46364;DHT22;32071;49.036;9.344;2023-04-01T05:24:59;8.90;99.90
46364;DHT22;32071;49.036;9.344;2023-04-01T05:27:25;8.90;99.90
46364;DHT22;32071;49.036;9.344;2023-04-01T05:29:51;8.90;99.90
46364;DHT22;32071;49.036;9.344;2023-04-01T05:32:16;8.90;99.90
46364;DHT22;32071;49.036;9.344;2023-04-01T05:34:42;8.90;99.90
46364;DHT22;32071;49.036;9.344;2023-04-01T05:37:07;8.90;99.90
46364;DHT22;32071;49.036;9.344;2023-04-01T05:39:37;8.90;99.90
46364;DHT22;32071;49.036;9.344;2023-04-01T05:42:05;9.00;99.90
46364;DHT22;32071;49.036;9.344;2023-04-01T05:44:31;9.00;99.90
46364;DHT22;32071;49.036;9.344;2023-04-01T05:46:57;9.00;99.90
46364;DHT22;32071;49.036;9.344;2023-04-01T05:49:22;9.00;99.90
46364;DHT22;32071;49.036;9.344;2023-04-01T05:51:48;9.10;99.90
46364;DHT22;32071;49.036;9.344;2023-04-01T05:54:13;9.10;99.90
46364;DHT22;32071;49.036;9.344;2023-04-01T05:56:39;9.10;99.90
46364;DHT22;32071;49.036;9.344;2023-04-01T05:59:04;9.10;99.90
46364;DHT22;32071;49.036;9.344;2023-04-01T06:01:30;9.10;99.90
46364;DHT22;32071;49.036;9.344;2023-04-01T06:03:56;9.00;99.90
46364;DHT22;32071;49.036;9.344;2023-04-01T06:06:27;9.00;99.90
46364;DHT22;32071;49.036;9.344;2023-04-01T06:08:56;9.00;99.90
46364;DHT22;32071;49.036;9.344;2023-04-01T06:14:52;8.90;99.90
46364;DHT22;32071;49.036;9.344;2023-04-01T06:17:39;8.90;99.90
46364;DHT22;32071;49.036;9.344;2023-04-01T06:31:24;9.00;99.90
46364;DHT22;32071;49.036;9.344;2023-04-01T06:56:14;9.10;99.90
46364;DHT22;32071;49.036;9.344;2023-04-01T06:58:46;9.10;99.90
46364;DHT22;32071;49.036;9.344;2023-04-01T07:01:18;9.10;99.90
46364;DHT22;32071;49.036;9.344;2023-04-01T07:03:50;9.10;99.90
46364;DHT22;32071;49.036;9.344;2023-04-01T07:06:29;9.10;99.90
46364;DHT22;32071;49.036;9.344;2023-04-01T07:08:59;9.10;99.90
46364;DHT22;32071;49.036;9.344;2023-04-01T07:11:32;9.00;99.90
46364;DHT22;32071;49.036;9.344;2023-04-01T07:14:02;9.00;99.90
46364;DHT22;32071;49.036;9.344;2023-04-01T07:16:45;9.00;99.90
46364;DHT22;32071;49.036;9.344;2023-04-01T07:19:25;9.10;99.90
46364;DHT22;32071;49.036;9.344;2023-04-01T07:21:56;9.10;99.90
46364;DHT22;32071;49.036;9.344;2023-04-01T07:24:26;9.20;99.90
46364;DHT22;32071;49.036;9.344;2023-04-01T07:26:55;9.20;99.90
46364;DHT22;32071;49.036;9.344;2023-04-01T07:29:21;9.20;99.90
46364;DHT22;32071;49.036;9.344;2023-04-01T07:46:03;9.50;99.90
46364;DHT22;32071;49.036;9.344;2023-04-01T07:48:54;9.40;99.90
46364;DHT22;32071;49.036;9.344;2023-04-01T07:51:28;9.40;99.90
46364;DHT22;32071;49.036;9.344;2023-04-01T07:56:59;9.50;99.90
46364;DHT22;32071;49.036;9.344;2023-04-01T07:59:57;9.50;99.90
46364;DHT22;32071;49.036;9.344;2023-04-01T08:05:36;9.60;99.90
46364;DHT22;32071;49.036;9.344;2023-04-01T08:08:19;9.50;99.90
46364;DHT22;32071;49.036;9.344;2023-04-01T08:10:59;9.50;99.90
46364;DHT22;32071;49.036;9.344;2023-04-01T08:19:09;9.60;99.90
46364;DHT22;32071;49.036;9.344;2023-04-01T08:22:03;9.60;99.90
46364;DHT22;32071;49.036;9.344;2023-04-01T08:24:45;9.50;99.90
46364;DHT22;32071;49.036;9.344;2023-04-01T08:27:23;9.60;99.90
46364;DHT22;32071;49.036;9.344;2023-04-01T08:32:44;9.60;99.90
46364;DHT22;32071;49.036;9.344;2023-04-01T08:37:40;9.60;99.90
46364;DHT22;32071;49.036;9.344;2023-04-01T08:43:21;9.40;99.90
46364;DHT22;32071;49.036;9.344;2023-04-01T08:54:41;9.10;99.90
46364;DHT22;32071;49.036;9.344;2023-04-01T08:57:16;9.00;99.90
46364;DHT22;32071;49.036;9.344;2023-04-01T09:00:15;9.00;99.90
46364;DHT22;32071;49.036;9.344;2023-04-01T09:08:36;9.00;99.90
46364;DHT22;32071;49.036;9.344;2023-04-01T09:19:35;8.90;99.90
46364;DHT22;32071;49.036;9.344;2023-04-01T09:31:09;9.00;99.90
46364;DHT22;32071;49.036;9.344;2023-04-01T09:34:01;9.00;99.90
46364;DHT22;32071;49.036;9.344;2023-04-01T09:39:29;8.90;99.90
46364;DHT22;32071;49.036;9.344;2023-04-01T09:44:48;9.00;99.90
46364;DHT22;32071;49.036;9.344;2023-04-01T09:47:45;9.00;99.90
46364;DHT22;32071;49.036;9.344;2023-04-01T09:50:33;9.00;99.90
46364;DHT22;32071;49.036;9.344;2023-04-01T09:59:21;9.10;99.90
46364;DHT22;32071;49.036;9.344;2023-04-01T10:10:35;9.10;99.90
46364;DHT22;32071;49.036;9.344;2023-04-01T10:21:47;9.20;99.90
46364;DHT22;32071;49.036;9.344;2023-04-01T10:38:58;9.40;99.90
46364;DHT22;32071;49.036;9.344;2023-04-01T10:47:01;9.20;99.90
46364;DHT22;32071;49.036;9.344;2023-04-01T11:00:28;9.20;99.90
46364;DHT22;32071;49.036;9.344;2023-04-01T11:03:38;9.20;99.90
46364;DHT22;32071;49.036;9.344;2023-04-01T11:15:09;9.30;99.90
46364;DHT22;32071;49.036;9.344;2023-04-01T11:18:00;9.40;99.90
46364;DHT22;32071;49.036;9.344;2023-04-01T11:23:16;9.10;99.90
46364;DHT22;32071;49.036;9.344;2023-04-01T11:37:19;9.20;99.90
46364;DHT22;32071;49.036;9.344;2023-04-01T11:39:55;9.20;99.90
46364;DHT22;32071;49.036;9.344;2023-04-01T11:42:45;9.20;99.90
46364;DHT22;32071;49.036;9.344;2023-04-01T11:45:38;9.20;99.90
46364;DHT22;32071;49.036;9.344;2023-04-01T11:56:39;9.40;99.90
46364;DHT22;32071;49.036;9.344;2023-04-01T12:07:40;9.50;99.90
46364;DHT22;32071;49.036;9.344;2023-04-01T12:18:46;9.60;99.90
46364;DHT22;32071;49.036;9.344;2023-04-01T12:21:34;9.70;99.90
46364;DHT22;32071;49.036;9.344;2023-04-01T12:27:20;9.70;99.90
46364;DHT22;32071;49.036;9.344;2023-04-01T12:45:32;9.60;99.90
46364;DHT22;32071;49.036;9.344;2023-04-01T12:48:38;9.60;99.90
46364;DHT22;32071;49.036;9.344;2023-04-01T13:04:39;9.50;99.90
46364;DHT22;32071;49.036;9.344;2023-04-01T13:13:03;9.30;99.90
46364;DHT22;32071;49.036;9.344;2023-04-01T13:15:43;9.30;99.90
46364;DHT22;32071;49.036;9.344;2023-04-01T13:28:47;9.30;99.90
46364;DHT22;32071;49.036;9.344;2023-04-01T13:37:04;9.30;99.90
46364;DHT22;32071;49.036;9.344;2023-04-01T13:42:24;9.40;99.90
46364;DHT22;32071;49.036;9.344;2023-04-01T13:45:15;9.40;99.90
46364;DHT22;32071;49.036;9.344;2023-04-01T13:47:54;9.40;99.90
46364;DHT22;32071;49.036;9.344;2023-04-01T13:53:21;9.30;99.90
46364;DHT22;32071;49.036;9.344;2023-04-01T13:55:54;9.40;99.90
46364;DHT22;32071;49.036;9.344;2023-04-01T14:01:08;9.60;99.90
46364;DHT22;32071;49.036;9.344;2023-04-01T14:04:00;9.70;99.90
46364;DHT22;32071;49.036;9.344;2023-04-01T14:09:58;9.70;99.90
46364;DHT22;32071;49.036;9.344;2023-04-01T14:30:32;9.40;99.90
46364;DHT22;32071;49.036;9.344;2023-04-01T14:43:31;9.20;99.90
46364;DHT22;32071;49.036;9.344;2023-04-01T14:49:34;9.30;99.90
46364;DHT22;32071;49.036;9.344;2023-04-01T14:52:38;9.40;99.90
46364;DHT22;32071;49.036;9.344;2023-04-01T14:55:21;9.40;99.90
46364;DHT22;32071;49.036;9.344;2023-04-01T14:58:08;9.40;99.90
46364;DHT22;32071;49.036;9.344;2023-04-01T15:03:32;9.40;99.90
46364;DHT22;32071;49.036;9.344;2023-04-01T15:09:17;9.40;99.90
46364;DHT22;32071;49.036;9.344;2023-04-01T15:15:09;9.40;99.90
46364;DHT22;32071;49.036;9.344;2023-04-01T15:21:01;9.40;99.90
46364;DHT22;32071;49.036;9.344;2023-04-01T15:29:12;9.50;99.90
46364;DHT22;32071;49.036;9.344;2023-04-01T15:35:06;9.60;99.90
46364;DHT22;32071;49.036;9.344;2023-04-01T15:40:20;9.60;99.90
46364;DHT22;32071;49.036;9.344;2023-04-01T15:45:47;9.60;99.90
46364;DHT22;32071;49.036;9.344;2023-04-01T15:56:51;9.60;99.90
46364;DHT22;32071;49.036;9.344;2023-04-01T15:59:26;9.70;99.90
46364;DHT22;32071;49.036;9.344;2023-04-01T16:05:21;9.70;99.90
46364;DHT22;32071;49.036;9.344;2023-04-01T16:10:56;9.70;99.90
46364;DHT22;32071;49.036;9.344;2023-04-01T16:16:07;9.80;99.90
46364;DHT22;32071;49.036;9.344;2023-04-01T16:18:53;9.80;99.90
46364;DHT22;32071;49.036;9.344;2023-04-01T16:24:25;9.80;99.90
46364;DHT22;32071;49.036;9.344;2023-04-01T16:32:44;9.80;99.90
46364;DHT22;32071;49.036;9.344;2023-04-01T16:43:38;9.90;99.90
46364;DHT22;32071;49.036;9.344;2023-04-01T16:49:04;9.90;99.90
46364;DHT22;32071;49.036;9.344;2023-04-01T16:59:25;9.90;99.90
46364;DHT22;32071;49.036;9.344;2023-04-01T17:02:10;9.90;99.90
46364;DHT22;32071;49.036;9.344;2023-04-01T17:10:50;9.90;99.90
46364;DHT22;32071;49.036;9.344;2023-04-01T17:18:46;9.90;99.90
46364;DHT22;32071;49.036;9.344;2023-04-01T17:21:21;9.90;99.90
46364;DHT22;32071;49.036;9.344;2023-04-01T17:24:05;9.90;99.90
46364;DHT22;32071;49.036;9.344;2023-04-01T17:29:19;9.90;99.90
46364;DHT22;32071;49.036;9.344;2023-04-01T17:34:56;9.90;99.90
46364;DHT22;32071;49.036;9.344;2023-04-01T17:37:33;9.90;99.90
46364;DHT22;32071;49.036;9.344;2023-04-01T17:42:48;9.80;99.90
46364;DHT22;32071;49.036;9.344;2023-04-01T17:45:33;9.90;99.90
46364;DHT22;32071;49.036;9.344;2023-04-01T17:48:14;9.80;99.90
46364;DHT22;32071;49.036;9.344;2023-04-01T17:51:05;9.80;99.90
46364;DHT22;32071;49.036;9.344;2023-04-01T17:56:45;9.80;99.90
46364;DHT22;32071;49.036;9.344;2023-04-01T17:59:37;9.80;99.90
46364;DHT22;32071;49.036;9.344;2023-04-01T18:11:26;9.60;99.90
46364;DHT22;32071;49.036;9.344;2023-04-01T18:22:45;9.70;99.90
46364;DHT22;32071;49.036;9.344;2023-04-01T18:25:34;9.60;99.90
46364;DHT22;32071;49.036;9.344;2023-04-01T18:28:14;9.60;99.90
46364;DHT22;32071;49.036;9.344;2023-04-01T18:30:44;9.60;99.90
46364;DHT22;32071;49.036;9.344;2023-04-01T18:33:21;9.50;99.90
46364;DHT22;32071;49.036;9.344;2023-04-01T18:35:58;9.50;99.90
46364;DHT22;32071;49.036;9.344;2023-04-01T18:38:34;9.50;99.90
46364;DHT22;32071;49.036;9.344;2023-04-01T18:51:50;9.40;99.90
46364;DHT22;32071;49.036;9.344;2023-04-01T18:54:52;9.40;99.90
46364;DHT22;32071;49.036;9.344;2023-04-01T18:57:19;9.40;99.90
46364;DHT22;32071;49.036;9.344;2023-04-01T18:59:46;9.40;99.90
46364;DHT22;32071;49.036;9.344;2023-04-01T19:02:41;9.30;99.90
46364;DHT22;32071;49.036;9.344;2023-04-01T19:05:12;9.30;99.90
46364;DHT22;32071;49.036;9.344;2023-04-01T19:10:17;9.40;99.90
46364;DHT22;32071;49.036;9.344;2023-04-01T19:13:09;9.40;99.90
46364;DHT22;32071;49.036;9.344;2023-04-01T19:26:32;9.30;99.90
46364;DHT22;32071;49.036;9.344;2023-04-01T19:37:53;9.20;99.90
46364;DHT22;32071;49.036;9.344;2023-04-01T19:40:43;9.20;99.90
46364;DHT22;32071;49.036;9.344;2023-04-01T19:43:49;9.20;99.90
46364;DHT22;32071;49.036;9.344;2023-04-01T19:46:32;9.20;99.90
46364;DHT22;32071;49.036;9.344;2023-04-01T20:00:02;9.20;99.90
46364;DHT22;32071;49.036;9.344;2023-04-01T20:03:05;9.20;99.90
46364;DHT22;32071;49.036;9.344;2023-04-01T20:16:53;9.20;99.90
46364;DHT22;32071;49.036;9.344;2023-04-01T20:19:39;9.20;99.90
46364;DHT22;32071;49.036;9.344;2023-04-01T20:22:20;9.20;99.90
46364;DHT22;32071;49.036;9.344;2023-04-01T20:24:51;9.20;99.90
46364;DHT22;32071;49.036;9.344;2023-04-01T20:27:22;9.20;99.90
46364;DHT22;32071;49.036;9.344;2023-04-01T20:32:48;9.20;99.90
46364;DHT22;32071;49.036;9.344;2023-04-01T20:40:57;9.20;99.90
46364;DHT22;32071;49.036;9.344;2023-04-01T20:43:48;9.10;99.90
46364;DHT22;32071;49.036;9.344;2023-04-01T20:51:54;9.20;99.90
46364;DHT22;32071;49.036;9.344;2023-04-01T20:57:25;9.10;99.90
46364;DHT22;32071;49.036;9.344;2023-04-01T21:08:58;9.10;99.90
46364;DHT22;32071;49.036;9.344;2023-04-01T21:28:34;9.00;99.90
46364;DHT22;32071;49.036;9.344;2023-04-01T21:39:27;8.90;99.90
46364;DHT22;32071;49.036;9.344;2023-04-01T21:50:14;8.90;99.90
46364;DHT22;32071;49.036;9.344;2023-04-01T21:52:52;9.00;99.90
46364;DHT22;32071;49.036;9.344;2023-04-01T22:07:21;9.00;99.90
46364;DHT22;32071;49.036;9.344;2023-04-01T22:12:41;9.00;99.90
46364;DHT22;32071;49.036;9.344;2023-04-01T22:15:29;8.90;99.90
46364;DHT22;32071;49.036;9.344;2023-04-01T22:20:53;9.00;99.90
46364;DHT22;32071;49.036;9.344;2023-04-01T22:29:15;8.90;99.90
46364;DHT22;32071;49.036;9.344;2023-04-01T22:32:03;8.90;99.90
46364;DHT22;32071;49.036;9.344;2023-04-01T22:37:19;9.00;99.90
46364;DHT22;32071;49.036;9.344;2023-04-01T22:42:46;9.00;99.90
46364;DHT22;32071;49.036;9.344;2023-04-01T22:50:25;8.90;99.90
46364;DHT22;32071;49.036;9.344;2023-04-01T22:53:18;8.90;99.90
46364;DHT22;32071;49.036;9.344;2023-04-01T22:55:48;9.00;99.90
46364;DHT22;32071;49.036;9.344;2023-04-01T22:58:53;8.90;99.90
46364;DHT22;32071;49.036;9.344;2023-04-01T23:01:16;9.00;99.90
46364;DHT22;32071;49.036;9.344;2023-04-01T23:03:44;8.90;99.90
46364;DHT22;32071;49.036;9.344;2023-04-01T23:06:17;8.90;99.90
46364;DHT22;32071;49.036;9.344;2023-04-01T23:09:05;8.90;99.90
46364;DHT22;32071;49.036;9.344;2023-04-01T23:11:55;9.00;99.90
46364;DHT22;32071;49.036;9.344;2023-04-01T23:17:07;9.00;99.90
46364;DHT22;32071;49.036;9.344;2023-04-01T23:23:35;8.90;99.90
46364;DHT22;32071;49.036;9.344;2023-04-01T23:33:29;8.90;99.90
46364;DHT22;32071;49.036;9.344;2023-04-01T23:38:40;8.90;99.90
46364;DHT22;32071;49.036;9.344;2023-04-01T23:41:21;8.90;99.90
46364;DHT22;32071;49.036;9.344;2023-04-01T23:44:00;9.00;99.90
46364;DHT22;32071;49.036;9.344;2023-04-01T23:46:29;8.90;99.90
46364;DHT22;32071;49.036;9.344;2023-04-01T23:48:55;8.90;99.90
46364;DHT22;32071;49.036;9.344;2023-04-01T23:51:29;8.90;99.90
46364;DHT22;32071;49.036;9.344;2023-04-01T23:54:04;8.90;99.90
46364;DHT22;32071;49.036;9.344;2023-04-01T23:56:42;8.80;99.90
46364;DHT22;32071;49.036;9.344;2023-04-01T23:59:32;8.80;99.90
